createdAt,value
2018-04-19T00:00:32.943Z,86.80
2018-04-19T00:03:05.844Z,87.10
2018-04-19T00:05:37.985Z,87.90
2018-04-19T00:08:10.544Z,88.70
2018-04-19T00:10:45.524Z,88.30
2018-04-19T00:13:17.764Z,87.90
2018-04-19T00:15:50.544Z,87.60
2018-04-19T00:18:24.070Z,87.50
2018-04-19T00:20:56.524Z,87.60
2018-04-19T00:23:28.743Z,87.80
2018-04-19T00:26:00.924Z,87.90
2018-04-19T00:28:33.543Z,87.80
2018-04-19T00:31:05.724Z,87.80
2018-04-19T00:33:37.944Z,88.80
2018-04-19T00:36:10.124Z,88.20
2018-04-19T00:38:42.384Z,87.90
2018-04-19T00:41:15.044Z,87.80
2018-04-19T00:43:47.264Z,88.20
2018-04-19T00:46:19.564Z,87.70
2018-04-19T00:48:51.804Z,87.20
2018-04-19T00:51:24.064Z,87.20
2018-04-19T00:53:56.227Z,87.20
2018-04-19T00:56:28.445Z,87.30
2018-04-19T00:59:00.684Z,87.70
2018-04-19T01:01:32.904Z,87.90
2018-04-19T01:04:05.208Z,87.30
2018-04-19T01:06:37.366Z,87.00
2018-04-19T01:09:09.604Z,86.90
2018-04-19T01:11:41.746Z,86.50
2018-04-19T01:14:14.064Z,86.40
2018-04-19T01:16:46.952Z,87.30
2018-04-19T01:19:19.244Z,87.30
2018-04-19T01:21:51.525Z,87.50
2018-04-19T01:24:23.725Z,88.10
2018-04-19T01:26:55.924Z,88.60
2018-04-19T01:29:28.871Z,88.90
2018-04-19T01:32:01.089Z,88.90
2018-04-19T01:34:33.264Z,89.30
2018-04-19T01:37:05.765Z,89.50
2018-04-19T01:39:37.964Z,90.10
2018-04-19T01:42:10.964Z,90.20
2018-04-19T01:44:43.844Z,90.10
2018-04-19T01:47:16.044Z,90.30
2018-04-19T01:49:48.223Z,90.40
2018-04-19T01:52:20.464Z,90.40
2018-04-19T01:54:53.432Z,90.30
2018-04-19T01:57:25.564Z,90.30
2018-04-19T01:59:57.728Z,90.30
2018-04-19T02:02:29.984Z,90.40
2018-04-19T02:05:02.224Z,90.70
2018-04-19T02:07:34.444Z,91.10
2018-04-19T02:10:06.625Z,91.00
2018-04-19T02:12:38.845Z,90.90
2018-04-19T02:15:11.232Z,91.20
2018-04-19T02:17:43.404Z,91.40
2018-04-19T02:20:15.588Z,91.50
2018-04-19T02:22:47.804Z,91.40
2018-04-19T02:25:20.704Z,91.20
2018-04-19T02:27:52.844Z,91.20
2018-04-19T02:30:25.025Z,91.10
2018-04-19T02:32:57.325Z,90.90
2018-04-19T02:35:29.445Z,91.00
2018-04-19T02:38:01.709Z,91.10
2018-04-19T02:40:34.565Z,91.70
2018-04-19T02:43:07.524Z,91.80
2018-04-19T02:45:40.324Z,91.70
2018-04-19T02:48:12.543Z,91.70
2018-04-19T02:50:44.604Z,91.50
2018-04-19T02:53:16.784Z,91.30
2018-04-19T02:55:48.975Z,91.60
2018-04-19T02:58:16.791Z,90.50
2018-04-19T03:00:49.002Z,90.50
2018-04-19T03:03:21.273Z,90.10
2018-04-19T03:05:53.427Z,89.30
2018-04-19T03:08:25.546Z,88.90
2018-04-19T03:10:57.792Z,89.10
2018-04-19T03:13:30.044Z,89.70
2018-04-19T03:16:02.223Z,89.60
2018-04-19T03:18:34.444Z,90.70
2018-04-19T03:21:06.603Z,91.40
2018-04-19T03:23:38.843Z,91.30
2018-04-19T03:26:11.043Z,91.40
2018-04-19T03:28:43.245Z,90.90
2018-04-19T03:31:15.404Z,90.60
2018-04-19T03:33:47.564Z,90.60
2018-04-19T03:36:20.143Z,90.30
2018-04-19T03:38:52.465Z,90.20
2018-04-19T03:41:25.108Z,90.20
2018-04-19T03:43:58.524Z,90.40
2018-04-19T03:46:31.386Z,90.40
2018-04-19T03:49:03.624Z,90.40
2018-04-19T03:51:36.165Z,90.20
2018-04-19T03:54:08.604Z,90.00
2018-04-19T03:56:40.765Z,89.60
2018-04-19T03:59:12.984Z,89.30
2018-04-19T04:01:45.226Z,89.30
2018-04-19T04:04:17.806Z,89.50
2018-04-19T04:06:51.004Z,90.00
2018-04-19T04:09:23.089Z,90.00
2018-04-19T04:11:55.364Z,90.30
2018-04-19T04:14:28.265Z,89.40
2018-04-19T04:17:18.504Z,89.20
2018-04-19T04:20:08.824Z,89.50
2018-04-19T04:22:58.928Z,89.30
2018-04-19T04:25:31.085Z,89.30
2018-04-19T04:28:03.414Z,89.00
2018-04-19T04:30:35.624Z,88.90
2018-04-19T04:33:07.884Z,89.20
2018-04-19T04:35:40.045Z,88.90
2018-04-19T04:38:12.265Z,88.70
2018-04-19T04:40:44.485Z,88.00
2018-04-19T04:43:16.786Z,87.30
2018-04-19T04:45:49.446Z,86.40
2018-04-19T04:48:21.705Z,86.40
2018-04-19T04:50:53.924Z,85.70
2018-04-19T04:53:26.125Z,85.70
2018-04-19T04:55:58.364Z,83.20
2018-04-19T04:58:30.577Z,82.00
2018-04-19T05:01:02.745Z,78.50
2018-04-19T05:03:35.265Z,76.50
2018-04-19T05:06:07.487Z,75.70
2018-04-19T05:08:39.746Z,73.50
2018-04-19T05:11:12.726Z,70.60
2018-04-19T05:13:45.404Z,70.50
2018-04-19T05:16:17.924Z,68.70
2018-04-19T05:18:50.124Z,66.50
2018-04-19T05:21:22.806Z,67.00
2018-04-19T05:23:55.364Z,67.10
2018-04-19T05:26:27.585Z,66.30
2018-04-19T05:28:59.765Z,66.30
2018-04-19T05:31:32.029Z,66.20
2018-04-19T05:34:04.244Z,66.30
2018-04-19T05:36:36.325Z,66.30
2018-04-19T05:39:08.467Z,65.20
2018-04-19T05:41:40.624Z,62.70
2018-04-19T05:44:12.845Z,60.20
2018-04-19T05:46:45.345Z,60.50
2018-04-19T05:49:17.572Z,61.50
2018-04-19T05:51:49.813Z,62.70
2018-04-19T05:54:22.322Z,62.90
2018-04-19T05:56:55.309Z,66.70
2018-04-19T05:59:27.804Z,66.90
2018-04-19T06:02:00.284Z,65.20
2018-04-19T06:04:32.527Z,64.30
2018-04-19T06:07:04.803Z,65.10
2018-04-19T06:09:37.003Z,65.50
2018-04-19T06:12:09.943Z,65.00
2018-04-19T06:14:42.068Z,65.20
2018-04-19T06:17:15.024Z,66.90
2018-04-19T06:19:47.244Z,66.90
2018-04-19T06:22:19.843Z,68.00
2018-04-19T06:24:52.098Z,65.90
2018-04-19T06:27:24.265Z,65.30
2018-04-19T06:29:56.545Z,64.80
2018-04-19T06:32:28.784Z,64.90
2018-04-19T06:35:01.003Z,64.80
2018-04-19T06:37:33.184Z,65.00
2018-04-19T06:40:05.426Z,64.70
2018-04-19T06:42:37.683Z,64.20
2018-04-19T06:45:09.925Z,64.40
2018-04-19T06:47:42.224Z,63.00
2018-04-19T06:50:14.485Z,61.00
2018-04-19T06:52:46.586Z,61.30
2018-04-19T06:55:19.145Z,60.10
2018-04-19T06:57:51.544Z,61.20
2018-04-19T07:00:24.465Z,59.60
2018-04-19T07:02:56.665Z,59.60
2018-04-19T07:05:23.784Z,58.70
2018-04-19T07:07:56.345Z,57.80
2018-04-19T07:10:29.284Z,57.10
2018-04-19T07:13:01.505Z,57.20
2018-04-19T07:15:33.804Z,57.00
2018-04-19T07:18:06.145Z,57.50
2018-04-19T07:20:33.285Z,57.70
2018-04-19T07:23:06.224Z,57.40
2018-04-19T07:25:38.464Z,57.30
2018-04-19T07:28:10.645Z,57.60
2018-04-19T07:30:43.343Z,57.00
2018-04-19T07:33:15.766Z,58.10
2018-04-19T07:35:48.005Z,56.60
2018-04-19T07:38:20.184Z,56.70
2018-04-19T07:40:53.116Z,56.20
2018-04-19T07:43:25.285Z,56.10
2018-04-19T07:45:57.604Z,56.00
2018-04-19T07:48:29.865Z,54.80
2018-04-19T07:51:02.143Z,54.30
2018-04-19T07:53:34.305Z,54.80
2018-04-19T07:56:06.548Z,54.90
2018-04-19T07:58:38.752Z,55.30
2018-04-19T08:01:11.204Z,54.80
2018-04-19T08:03:43.504Z,53.80
2018-04-19T08:06:15.806Z,54.10
2018-04-19T08:08:48.285Z,53.40
2018-04-19T08:11:20.535Z,55.40
2018-04-19T08:13:52.784Z,53.90
2018-04-19T08:16:25.690Z,54.10
2018-04-19T08:18:57.984Z,54.10
2018-04-19T08:21:25.124Z,53.60
2018-04-19T08:23:57.344Z,53.10
2018-04-19T08:26:29.845Z,53.30
2018-04-19T08:29:02.145Z,52.20
2018-04-19T08:31:34.323Z,52.00
2018-04-19T08:34:07.304Z,51.00
2018-04-19T08:36:39.541Z,51.00
2018-04-19T08:39:12.144Z,50.10
2018-04-19T08:41:46.185Z,51.10
2018-04-19T08:44:18.403Z,51.00
2018-04-19T08:46:50.649Z,51.20
2018-04-19T08:49:22.884Z,50.10
2018-04-19T08:51:55.105Z,49.00
2018-04-19T08:54:27.305Z,48.80
2018-04-19T08:56:59.484Z,47.00
2018-04-19T08:59:31.664Z,46.80
2018-04-19T09:02:03.945Z,46.80
2018-04-19T09:04:36.245Z,47.70
2018-04-19T09:07:08.525Z,47.80
2018-04-19T09:09:42.525Z,46.70
2018-04-19T09:12:14.786Z,45.40
2018-04-19T09:14:47.065Z,45.40
2018-04-19T09:17:19.325Z,46.70
2018-04-19T09:19:52.105Z,45.80
2018-04-19T09:22:25.107Z,45.50
2018-04-19T09:24:57.325Z,45.50
2018-04-19T09:27:29.565Z,46.10
2018-04-19T09:30:01.847Z,45.70
2018-04-19T09:32:34.105Z,45.20
2018-04-19T09:35:06.305Z,45.40
2018-04-19T09:37:38.972Z,44.80
2018-04-19T09:40:11.146Z,44.60
2018-04-19T09:42:43.445Z,43.20
2018-04-19T09:45:16.345Z,44.10
2018-04-19T09:47:48.945Z,44.10
2018-04-19T09:50:22.105Z,42.80
2018-04-19T09:52:54.324Z,42.80
2018-04-19T09:55:26.588Z,42.80
2018-04-19T09:58:09.584Z,41.70
2018-04-19T10:00:44.696Z,41.60
2018-04-19T10:03:18.172Z,40.30
2018-04-19T10:05:56.727Z,39.30
2018-04-19T10:08:29.044Z,37.50
2018-04-19T10:11:01.242Z,37.00
2018-04-19T10:13:33.982Z,36.70
2018-04-19T10:16:06.235Z,37.60
2018-04-19T10:18:38.943Z,36.00
2018-04-19T10:21:11.230Z,37.30
2018-04-19T10:23:44.744Z,36.70
2018-04-19T10:26:17.107Z,36.70
2018-04-19T10:28:50.039Z,35.80
2018-04-19T10:31:22.164Z,35.80
2018-04-19T10:33:55.503Z,36.90
2018-04-19T10:36:27.703Z,37.00
2018-04-19T10:38:59.923Z,37.20
2018-04-19T10:41:32.085Z,38.70
2018-04-19T10:44:04.283Z,36.50
2018-04-19T10:46:36.603Z,37.90
2018-04-19T10:49:08.883Z,36.90
2018-04-19T10:51:41.223Z,37.20
2018-04-19T10:54:14.683Z,36.40
2018-04-19T10:56:47.487Z,36.40
2018-04-19T10:59:19.766Z,37.10
2018-04-19T11:01:51.983Z,38.20
2018-04-19T11:04:24.142Z,37.20
2018-04-19T11:06:56.523Z,36.70
2018-04-19T11:09:28.762Z,36.80
2018-04-19T11:12:01.018Z,36.90
2018-04-19T11:14:33.218Z,36.50
2018-04-19T11:17:05.438Z,36.10
2018-04-19T11:19:37.679Z,35.70
2018-04-19T11:22:09.943Z,35.80
2018-04-19T11:24:42.158Z,34.80
2018-04-19T11:27:15.138Z,34.30
2018-04-19T11:29:47.319Z,34.20
2018-04-19T11:32:19.538Z,33.90
2018-04-19T11:34:51.746Z,33.90
2018-04-19T11:37:24.037Z,35.00
2018-04-19T11:39:56.997Z,34.40
2018-04-19T11:42:29.209Z,34.30
2018-04-19T11:45:01.418Z,33.70
2018-04-19T11:47:33.717Z,33.70
2018-04-19T11:50:05.937Z,35.00
2018-04-19T11:52:38.197Z,35.40
2018-04-19T11:55:10.939Z,34.60
2018-04-19T11:57:43.418Z,34.00
2018-04-19T12:00:15.599Z,33.10
2018-04-19T12:02:47.860Z,33.50
2018-04-19T12:05:20.039Z,33.30
2018-04-19T12:07:52.679Z,33.60
2018-04-19T12:10:24.864Z,32.80
2018-04-19T12:12:57.840Z,33.00
2018-04-19T12:15:30.080Z,32.90
2018-04-19T12:18:02.341Z,34.50
2018-04-19T12:20:34.559Z,35.10
2018-04-19T12:23:06.779Z,33.10
2018-04-19T12:25:39.254Z,32.90
2018-04-19T12:28:11.460Z,33.50
2018-04-19T12:30:44.400Z,33.80
2018-04-19T12:33:16.620Z,33.50
2018-04-19T12:35:49.800Z,33.50
2018-04-19T12:38:22.820Z,34.70
2018-04-19T12:40:55.080Z,34.70
2018-04-19T12:43:27.457Z,34.00
2018-04-19T12:45:59.639Z,33.50
2018-04-19T12:48:32.160Z,34.90
2018-04-19T12:51:04.401Z,35.60
2018-04-19T12:53:37.679Z,33.70
2018-04-19T12:56:10.040Z,33.70
2018-04-19T12:58:42.303Z,34.70
2018-04-19T13:01:14.459Z,36.20
2018-04-19T13:03:47.759Z,33.80
2018-04-19T13:06:19.899Z,33.70
2018-04-19T13:08:53.140Z,35.20
2018-04-19T13:11:25.279Z,35.10
2018-04-19T13:20:27.559Z,34.10
2018-04-19T13:22:59.679Z,34.60
2018-04-19T13:25:32.119Z,34.30
2018-04-19T13:28:04.399Z,35.00
2018-04-19T13:30:36.539Z,35.60
2018-04-19T13:33:08.758Z,34.00
2018-04-19T13:35:40.939Z,33.60
2018-04-19T13:38:13.079Z,34.30
2018-04-19T13:40:46.099Z,35.50
2018-04-19T13:43:18.897Z,36.10
2018-04-19T13:45:50.899Z,36.10
2018-04-19T13:48:23.079Z,34.00
2018-04-19T13:50:55.300Z,34.40
2018-04-19T13:53:28.439Z,33.10
2018-04-19T13:56:00.700Z,33.90
2018-04-19T13:58:33.046Z,34.50
2018-04-19T14:01:06.020Z,34.20
2018-04-19T14:03:38.247Z,34.20
2018-04-19T14:06:10.486Z,34.20
2018-04-19T14:08:42.750Z,33.90
2018-04-19T14:11:15.068Z,33.60
2018-04-19T14:13:47.657Z,33.50
2018-04-19T14:16:20.566Z,33.60
2018-04-19T14:18:52.807Z,33.60
2018-04-19T14:21:24.960Z,32.30
2018-04-19T14:23:58.167Z,31.60
2018-04-19T14:26:31.153Z,32.70
2018-04-19T14:29:03.415Z,32.70
2018-04-19T14:31:35.713Z,33.00
2018-04-19T14:34:08.615Z,30.60
2018-04-19T14:36:40.853Z,30.60
2018-04-19T14:39:13.473Z,31.80
2018-04-19T14:41:45.812Z,31.60
2018-04-19T14:44:18.054Z,31.10
2018-04-19T14:46:50.692Z,30.20
2018-04-19T14:49:22.914Z,30.30
2018-04-19T14:51:56.354Z,29.80
2018-04-19T14:54:29.548Z,30.50
2018-04-19T14:57:01.886Z,30.50
2018-04-19T14:59:34.946Z,30.80
2018-04-19T15:02:07.364Z,30.00
2018-04-19T15:04:40.323Z,31.90
2018-04-19T15:07:12.603Z,30.90
2018-04-19T15:09:44.890Z,32.00
2018-04-19T15:12:17.188Z,31.50
2018-04-19T15:14:49.348Z,29.30
2018-04-19T15:17:21.574Z,28.60
2018-04-19T15:19:54.355Z,29.50
2018-04-19T15:22:27.009Z,29.80
2018-04-19T15:24:59.251Z,30.00
2018-04-19T15:27:31.536Z,30.90
2018-04-19T15:30:03.709Z,30.60
2018-04-19T15:32:36.109Z,30.70
2018-04-19T15:35:08.281Z,31.70
2018-04-19T15:37:40.425Z,30.70
2018-04-19T15:40:13.335Z,29.90
2018-04-19T15:42:45.513Z,29.90
2018-04-19T15:45:17.974Z,29.80
2018-04-19T15:47:50.194Z,30.60
2018-04-19T15:50:22.593Z,31.60
2018-04-19T15:52:55.469Z,30.60
2018-04-19T15:55:27.709Z,30.60
2018-04-19T15:57:59.971Z,30.60
2018-04-19T16:00:32.306Z,30.10
2018-04-19T16:03:04.579Z,31.10
2018-04-19T16:05:36.778Z,30.20
2018-04-19T16:08:08.978Z,30.90
2018-04-19T16:10:41.107Z,31.60
2018-04-19T16:13:13.179Z,32.10
2018-04-19T16:15:46.099Z,31.00
2018-04-19T16:18:18.210Z,31.00
2018-04-19T16:20:50.439Z,31.70
2018-04-19T16:23:23.288Z,31.20
2018-04-19T16:25:57.299Z,31.10
2018-04-19T16:28:29.558Z,31.10
2018-04-19T16:31:01.704Z,32.20
2018-04-19T16:33:34.943Z,31.70
2018-04-19T16:36:07.217Z,31.60
2018-04-19T16:38:39.925Z,32.10
2018-04-19T16:41:12.103Z,32.20
2018-04-19T16:43:44.675Z,31.60
2018-04-19T16:46:16.875Z,32.30
2018-04-19T16:48:49.108Z,32.60
2018-04-19T16:51:21.476Z,32.60
2018-04-19T16:53:53.734Z,32.90
2018-04-19T16:56:26.285Z,33.30
2018-04-19T16:58:58.524Z,33.50
2018-04-19T17:01:30.683Z,33.70
2018-04-19T17:04:03.003Z,33.80
2018-04-19T17:06:35.363Z,33.70
2018-04-19T17:09:07.944Z,34.00
2018-04-19T17:11:40.163Z,34.20
2018-04-19T17:14:12.310Z,34.30
2018-04-19T17:16:44.583Z,34.40
2018-04-19T17:19:16.823Z,34.60
2018-04-19T17:21:49.105Z,34.60
2018-04-19T17:24:21.406Z,35.00
2018-04-19T17:26:53.643Z,35.20
2018-04-19T17:29:26.606Z,35.50
2018-04-19T17:31:58.763Z,35.50
2018-04-19T17:34:31.065Z,35.20
2018-04-19T17:37:03.330Z,35.40
2018-04-19T17:39:35.524Z,36.30
2018-04-19T17:42:07.744Z,36.40
2018-04-19T17:44:39.945Z,36.60
2018-04-19T17:47:13.344Z,37.70
2018-04-19T17:49:45.684Z,37.70
2018-04-19T17:52:17.971Z,37.90
2018-04-19T17:54:51.065Z,38.90
2018-04-19T17:57:23.374Z,38.80
2018-04-19T17:59:55.534Z,38.80
2018-04-19T18:02:27.734Z,39.30
2018-04-19T18:04:59.974Z,39.50
2018-04-19T18:07:32.215Z,39.80
2018-04-19T18:10:05.197Z,40.50
2018-04-19T18:12:37.457Z,40.50
2018-04-19T18:15:09.665Z,40.70
2018-04-19T18:17:41.878Z,41.00
2018-04-19T18:20:09.077Z,40.90
2018-04-19T18:22:41.558Z,41.30
2018-04-19T18:25:13.798Z,41.60
2018-04-19T18:27:45.978Z,42.10
2018-04-19T18:30:18.358Z,42.60
2018-04-19T18:32:50.677Z,42.90
2018-04-19T18:35:22.819Z,43.70
2018-04-19T18:37:55.017Z,44.30
2018-04-19T18:40:27.237Z,44.90
2018-04-19T18:42:59.464Z,45.50
2018-04-19T18:45:31.833Z,45.50
2018-04-19T18:48:03.958Z,45.60
2018-04-19T18:50:36.222Z,45.60
2018-04-19T18:53:08.400Z,45.80
2018-04-19T18:55:40.601Z,46.10
2018-04-19T18:58:12.920Z,45.40
2018-04-19T19:00:45.100Z,46.10
2018-04-19T19:03:18.158Z,46.40
2018-04-19T19:05:50.420Z,46.40
2018-04-19T19:08:23.379Z,47.30
2018-04-19T19:10:56.468Z,47.60
2018-04-19T19:13:28.827Z,47.60
2018-04-19T19:16:09.921Z,47.90
2018-04-19T19:19:00.416Z,48.80
2018-04-19T19:21:32.674Z,49.50
2018-04-19T19:24:04.894Z,49.20
2018-04-19T19:26:37.215Z,50.00
2018-04-19T19:29:09.874Z,51.10
2018-04-19T19:31:42.114Z,50.90
2018-04-19T19:34:14.294Z,51.60
2018-04-19T19:36:46.514Z,52.50
2018-04-19T19:39:18.754Z,54.00
2018-04-19T19:41:51.074Z,55.00
2018-04-19T19:44:23.214Z,56.50
2018-04-19T19:46:55.493Z,59.00
2018-04-19T19:49:27.694Z,61.10
2018-04-19T19:51:59.954Z,61.30
2018-04-19T19:54:32.174Z,61.70
2018-04-19T19:57:04.454Z,63.10
2018-04-19T19:59:36.779Z,64.10
2018-04-19T20:02:08.994Z,64.90
2018-04-19T20:04:41.255Z,65.30
2018-04-19T20:07:13.555Z,67.70
2018-04-19T20:09:45.775Z,68.40
2018-04-19T20:12:18.094Z,68.60
2018-04-19T20:14:50.915Z,69.10
2018-04-19T20:17:23.235Z,69.50
2018-04-19T20:19:55.634Z,69.60
2018-04-19T20:22:27.955Z,69.80
2018-04-19T20:25:00.135Z,70.00
2018-04-19T20:27:32.416Z,70.70
2018-04-19T20:30:05.351Z,71.70
2018-04-19T20:32:37.894Z,71.70
2018-04-19T20:35:10.194Z,71.80
2018-04-19T20:37:42.438Z,71.80
2018-04-19T20:40:15.374Z,72.10
2018-04-19T20:42:47.935Z,72.10
2018-04-19T20:45:20.134Z,72.10
2018-04-19T20:47:52.353Z,72.30
2018-04-19T20:50:24.594Z,73.90
2018-04-19T20:52:57.576Z,73.80
2018-04-19T20:55:30.994Z,74.20
2018-04-19T20:58:03.515Z,74.10
2018-04-19T21:00:39.957Z,74.20
2018-04-19T21:03:12.763Z,74.20
2018-04-19T21:05:45.032Z,74.40
2018-04-19T21:08:17.683Z,74.70
2018-04-19T21:10:49.923Z,74.40
2018-04-19T21:13:22.448Z,74.20
2018-04-19T21:15:55.493Z,74.50
2018-04-19T21:18:27.842Z,74.50
2018-04-19T21:21:00.445Z,74.60
2018-04-19T21:23:34.231Z,74.40
2018-04-19T21:26:06.431Z,74.40
2018-04-19T21:28:38.991Z,74.60
2018-04-19T21:31:11.172Z,74.60
2018-04-19T21:33:43.471Z,74.40
2018-04-19T21:36:15.715Z,74.60
2018-04-19T21:38:47.966Z,74.70
2018-04-19T21:41:20.126Z,75.10
2018-04-19T21:43:53.127Z,77.20
2018-04-19T21:46:25.605Z,77.20
2018-04-19T21:48:57.865Z,77.50
2018-04-19T21:51:30.033Z,77.60
2018-04-19T21:54:02.265Z,77.90
2018-04-19T21:56:34.446Z,78.00
2018-04-19T21:59:06.685Z,78.30
2018-04-19T22:01:38.925Z,79.00
2018-04-19T22:04:11.145Z,78.30
2018-04-19T22:06:43.666Z,78.80
2018-04-19T22:09:15.885Z,79.00
2018-04-19T22:11:49.186Z,79.40
2018-04-19T22:14:21.425Z,79.40
2018-04-19T22:16:54.786Z,80.20
2018-04-19T22:19:27.046Z,80.20
2018-04-19T22:21:59.245Z,80.70
2018-04-19T22:24:31.486Z,80.60
2018-04-19T22:27:03.665Z,80.50
2018-04-19T22:29:36.386Z,80.80
2018-04-19T22:32:03.565Z,80.60
2018-04-19T22:34:35.765Z,81.70
2018-04-19T22:37:08.006Z,81.00
2018-04-19T22:39:40.238Z,81.40
2018-04-19T22:42:13.025Z,81.40
2018-04-19T22:44:45.245Z,81.80
2018-04-19T22:47:17.766Z,82.00
2018-04-19T22:49:49.966Z,82.10
2018-04-19T22:52:22.205Z,82.10
2018-04-19T22:54:54.305Z,82.00
2018-04-19T22:57:27.274Z,81.60
2018-04-19T22:59:59.489Z,81.60
2018-04-19T23:02:31.765Z,82.50
2018-04-19T23:05:04.026Z,82.40
2018-04-19T23:07:36.286Z,82.50
2018-04-19T23:10:08.486Z,82.60
2018-04-19T23:12:40.932Z,82.90
2018-04-19T23:15:13.226Z,83.20
2018-04-19T23:17:45.445Z,83.20
2018-04-19T23:20:17.646Z,83.50
2018-04-19T23:22:49.970Z,84.40
2018-04-19T23:25:23.225Z,85.10
2018-04-19T23:27:55.477Z,85.10
2018-04-19T23:30:28.107Z,84.90
2018-04-19T23:33:00.365Z,85.20
2018-04-19T23:35:32.545Z,85.20
2018-04-19T23:38:05.566Z,85.50
2018-04-19T23:40:37.765Z,85.50
2018-04-19T23:43:10.009Z,85.70
2018-04-19T23:45:42.966Z,86.00
2018-04-19T23:48:15.165Z,86.20
2018-04-19T23:50:47.425Z,85.80
2018-04-19T23:53:19.625Z,85.80
2018-04-19T23:55:51.846Z,85.50
2018-04-19T23:58:24.085Z,85.90
